createdAt,value
2018-05-17T00:00:23.672Z,0.00
2018-05-17T00:01:23.904Z,0.00
2018-05-17T00:02:24.018Z,0.00
2018-05-17T00:03:24.231Z,0.00
2018-05-17T00:04:24.453Z,0.00
2018-05-17T00:05:24.674Z,0.00
2018-05-17T00:06:24.887Z,0.00
2018-05-17T00:07:25.109Z,0.00
2018-05-17T00:08:25.315Z,0.00
2018-05-17T00:09:25.528Z,0.00
2018-05-17T00:10:25.740Z,0.00
2018-05-17T00:11:25.948Z,0.00
2018-05-17T00:12:26.158Z,0.00
2018-05-17T00:13:26.373Z,0.00
2018-05-17T00:14:26.578Z,0.00
2018-05-17T00:15:26.789Z,0.00
2018-05-17T00:16:27.007Z,0.00
2018-05-17T00:17:29.200Z,0.00
2018-05-17T00:18:27.412Z,0.00
2018-05-17T00:19:27.641Z,0.00
2018-05-17T00:20:27.854Z,0.00
2018-05-17T00:21:28.069Z,0.00
2018-05-17T00:22:28.297Z,0.00
2018-05-17T00:23:28.517Z,0.00
2018-05-17T00:24:28.725Z,0.00
2018-05-17T00:25:28.938Z,0.00
2018-05-17T00:26:29.158Z,0.00
2018-05-17T00:27:31.198Z,0.00
2018-05-17T00:28:29.535Z,0.00
2018-05-17T00:29:32.711Z,0.00
2018-05-17T00:30:31.689Z,0.00
2018-05-17T00:31:30.051Z,0.00
2018-05-17T00:32:30.244Z,0.00
2018-05-17T00:33:30.448Z,0.00
2018-05-17T00:34:32.190Z,0.00
2018-05-17T00:35:30.793Z,0.00
2018-05-17T00:36:32.691Z,0.00
2018-05-17T00:37:31.038Z,0.00
2018-05-17T00:38:31.261Z,0.00
2018-05-17T00:39:31.461Z,0.00
2018-05-17T00:40:31.677Z,0.00
2018-05-17T00:41:33.704Z,0.00
2018-05-17T00:42:32.053Z,0.00
2018-05-17T00:43:32.263Z,0.00
2018-05-17T00:44:34.193Z,0.00
2018-05-17T00:45:32.657Z,0.00
2018-05-17T00:46:32.874Z,0.00
2018-05-17T00:47:33.085Z,0.00
2018-05-17T00:48:33.294Z,0.00
2018-05-17T00:49:35.191Z,0.00
2018-05-17T00:50:33.671Z,0.00
2018-05-17T00:51:35.693Z,0.00
2018-05-17T00:52:34.036Z,0.00
2018-05-17T00:53:34.261Z,0.00
2018-05-17T00:54:34.473Z,0.00
2018-05-17T00:55:34.681Z,0.00
2018-05-17T00:56:34.901Z,0.00
2018-05-17T00:57:35.120Z,0.00
2018-05-17T00:58:35.330Z,0.00
2018-05-17T00:59:35.545Z,0.00
2018-05-17T01:00:35.755Z,0.00
2018-05-17T01:01:37.703Z,0.00
2018-05-17T01:02:36.175Z,0.00
2018-05-17T01:03:40.207Z,0.00
2018-05-17T01:04:36.541Z,0.00
2018-05-17T01:05:36.776Z,0.00
2018-05-17T01:06:36.988Z,0.00
2018-05-17T01:07:37.212Z,0.00
2018-05-17T01:08:37.430Z,0.00
2018-05-17T01:09:39.196Z,0.00
2018-05-17T01:10:37.798Z,0.00
2018-05-17T01:11:38.015Z,0.00
2018-05-17T01:12:38.220Z,0.00
2018-05-17T01:13:41.197Z,0.00
2018-05-17T01:14:38.667Z,0.00
2018-05-17T01:15:38.872Z,0.00
2018-05-17T01:16:39.086Z,0.00
2018-05-17T01:17:39.294Z,0.00
2018-05-17T01:18:39.515Z,0.00
2018-05-17T01:19:41.692Z,0.00
2018-05-17T01:20:39.914Z,0.00
2018-05-17T01:21:43.691Z,0.00
2018-05-17T01:22:42.196Z,0.00
2018-05-17T01:23:40.422Z,0.00
2018-05-17T01:24:40.635Z,0.00
2018-05-17T01:25:40.853Z,0.00
2018-05-17T01:26:41.080Z,0.00
2018-05-17T01:27:41.305Z,0.00
2018-05-17T01:28:41.518Z,0.00
2018-05-17T01:29:41.730Z,0.00
2018-05-17T01:30:41.941Z,0.00
2018-05-17T01:31:42.150Z,0.00
2018-05-17T01:32:42.374Z,0.00
2018-05-17T01:33:42.579Z,0.00
2018-05-17T01:34:42.793Z,0.00
2018-05-17T01:35:44.697Z,0.00
2018-05-17T01:36:44.708Z,0.00
2018-05-17T01:37:43.289Z,0.00
2018-05-17T01:38:43.531Z,0.00
2018-05-17T01:39:43.627Z,0.00
2018-05-17T01:40:43.846Z,0.00
2018-05-17T01:41:44.053Z,0.00
2018-05-17T01:42:46.192Z,0.00
2018-05-17T01:43:44.408Z,0.00
2018-05-17T01:44:44.619Z,0.00
2018-05-17T01:45:44.842Z,0.00
2018-05-17T01:46:45.058Z,0.00
2018-05-17T01:47:45.268Z,0.00
2018-05-17T01:48:45.491Z,0.00
2018-05-17T01:49:45.701Z,0.00
2018-05-17T01:50:45.909Z,0.00
2018-05-17T01:51:46.137Z,0.00
2018-05-17T01:52:46.344Z,0.00
2018-05-17T01:53:46.559Z,0.00
2018-05-17T01:54:48.700Z,0.00
2018-05-17T01:55:46.914Z,0.00
2018-05-17T01:56:47.142Z,0.00
2018-05-17T01:57:47.367Z,0.00
2018-05-17T01:58:47.580Z,0.00
2018-05-17T01:59:47.796Z,0.00
2018-05-17T02:00:48.017Z,0.00
2018-05-17T02:01:48.236Z,0.00
2018-05-17T02:02:48.453Z,0.00
2018-05-17T02:03:48.671Z,0.00
2018-05-17T02:04:48.881Z,0.00
2018-05-17T02:05:49.097Z,0.00
2018-05-17T02:06:49.308Z,0.00
2018-05-17T02:07:49.526Z,0.00
2018-05-17T02:08:49.741Z,0.00
2018-05-17T02:09:49.954Z,0.00
2018-05-17T02:10:50.175Z,0.00
2018-05-17T02:11:50.385Z,0.00
2018-05-17T02:12:50.635Z,0.00
2018-05-17T02:13:50.838Z,0.00
2018-05-17T02:14:51.052Z,0.00
2018-05-17T02:15:51.270Z,0.00
2018-05-17T02:16:51.491Z,0.00
2018-05-17T02:17:51.700Z,0.00
2018-05-17T02:18:51.917Z,0.00
2018-05-17T02:19:52.131Z,0.00
2018-05-17T02:20:52.343Z,0.00
2018-05-17T02:21:54.194Z,0.00
2018-05-17T02:22:52.791Z,0.00
2018-05-17T02:23:54.697Z,0.00
2018-05-17T02:24:53.167Z,0.00
2018-05-17T02:25:53.381Z,0.00
2018-05-17T02:26:53.584Z,0.00
2018-05-17T02:27:53.805Z,0.00
2018-05-17T02:28:54.015Z,0.00
2018-05-17T02:29:54.227Z,0.00
2018-05-17T02:30:54.454Z,0.00
2018-05-17T02:31:54.673Z,0.00
2018-05-17T02:32:54.900Z,0.00
2018-05-17T02:33:55.120Z,0.00
2018-05-17T02:34:57.194Z,0.00
2018-05-17T02:35:55.542Z,0.00
2018-05-17T02:36:55.759Z,0.00
2018-05-17T02:37:55.969Z,0.00
2018-05-17T02:38:56.188Z,0.00
2018-05-17T02:39:56.391Z,0.00
2018-05-17T02:40:56.611Z,0.00
2018-05-17T02:41:56.825Z,0.00
2018-05-17T02:42:57.038Z,0.00
2018-05-17T02:43:59.238Z,0.00
2018-05-17T02:44:57.406Z,0.00
2018-05-17T02:45:57.623Z,0.00
2018-05-17T02:46:57.841Z,0.00
2018-05-17T02:47:58.052Z,0.00
2018-05-17T02:48:58.291Z,0.00
2018-05-17T02:50:00.219Z,0.00
2018-05-17T02:51:00.206Z,0.00
2018-05-17T02:51:58.673Z,0.00
2018-05-17T02:53:02.696Z,0.00
2018-05-17T02:53:59.039Z,0.00
2018-05-17T02:54:59.260Z,0.00
2018-05-17T02:55:59.477Z,0.00
2018-05-17T02:56:59.686Z,0.00
2018-05-17T02:57:59.903Z,4.00
2018-05-17T02:59:00.110Z,4.00
2018-05-17T03:00:00.327Z,4.00
2018-05-17T03:01:00.552Z,4.00
2018-05-17T03:02:02.696Z,4.00
2018-05-17T03:03:00.919Z,4.00
2018-05-17T03:04:01.135Z,4.00
2018-05-17T03:05:01.355Z,4.00
2018-05-17T03:06:01.580Z,4.00
2018-05-17T03:07:01.803Z,8.00
2018-05-17T03:08:02.026Z,4.00
2018-05-17T03:09:02.243Z,12.00
2018-05-17T03:10:02.454Z,8.00
2018-05-17T03:11:02.671Z,8.00
2018-05-17T03:12:02.904Z,12.00
2018-05-17T03:13:03.012Z,12.00
2018-05-17T03:14:03.234Z,16.00
2018-05-17T03:15:03.459Z,16.00
2018-05-17T03:16:03.674Z,20.00
2018-05-17T03:17:03.888Z,20.00
2018-05-17T03:18:04.097Z,24.00
2018-05-17T03:19:08.357Z,28.00
2018-05-17T03:20:04.447Z,32.00
2018-05-17T03:21:04.664Z,36.00
2018-05-17T03:22:04.876Z,36.00
2018-05-17T03:23:05.101Z,40.00
2018-05-17T03:24:05.303Z,48.00
2018-05-17T03:25:05.518Z,52.00
2018-05-17T03:26:05.731Z,60.00
2018-05-17T03:27:05.947Z,72.00
2018-05-17T03:28:06.166Z,80.00
2018-05-17T03:29:06.377Z,84.00
2018-05-17T03:30:06.604Z,96.00
2018-05-17T03:31:06.844Z,108.00
2018-05-17T03:32:07.022Z,116.00
2018-05-17T03:33:07.255Z,124.00
2018-05-17T03:34:07.352Z,136.00
2018-05-17T03:35:07.571Z,152.00
2018-05-17T03:36:07.799Z,168.00
2018-05-17T03:37:08.021Z,184.00
2018-05-17T03:38:08.246Z,204.00
2018-05-17T03:39:08.468Z,212.00
2018-05-17T03:40:08.682Z,224.00
2018-05-17T03:41:08.905Z,236.00
2018-05-17T03:42:09.121Z,252.00
2018-05-17T03:43:09.332Z,256.00
2018-05-17T03:44:09.578Z,272.00
2018-05-17T03:45:09.770Z,288.00
2018-05-17T03:46:09.981Z,316.00
2018-05-17T03:47:11.703Z,300.00
2018-05-17T03:48:10.443Z,340.00
2018-05-17T03:49:10.615Z,356.00
2018-05-17T03:50:10.827Z,360.00
2018-05-17T03:51:11.059Z,384.00
2018-05-17T03:52:11.264Z,408.00
2018-05-17T03:53:13.202Z,460.00
2018-05-17T03:54:11.540Z,480.00
2018-05-17T03:55:13.700Z,480.00
2018-05-17T03:56:11.917Z,476.00
2018-05-17T03:57:13.712Z,528.00
2018-05-17T03:58:14.205Z,512.00
2018-05-17T03:59:12.413Z,540.00
2018-05-17T04:00:12.657Z,588.00
2018-05-17T04:01:12.938Z,584.00
2018-05-17T04:02:13.056Z,640.00
2018-05-17T04:03:13.282Z,632.00
2018-05-17T04:04:13.505Z,632.00
2018-05-17T04:05:13.756Z,656.00
2018-05-17T04:06:15.712Z,688.00
2018-05-17T04:07:14.050Z,688.00
2018-05-17T04:08:14.257Z,764.00
2018-05-17T04:09:14.473Z,860.00
2018-05-17T04:10:14.681Z,856.00
2018-05-17T04:11:16.705Z,836.00
2018-05-17T04:12:15.049Z,740.00
2018-05-17T04:13:15.261Z,840.00
2018-05-17T04:14:15.476Z,908.00
2018-05-17T04:15:15.708Z,852.00
2018-05-17T04:16:15.920Z,832.00
2018-05-17T04:17:16.146Z,844.00
2018-05-17T04:18:16.329Z,856.00
2018-05-17T04:19:16.550Z,920.00
2018-05-17T04:20:16.765Z,924.00
2018-05-17T04:21:16.976Z,960.00
2018-05-17T04:22:17.201Z,1064.00
2018-05-17T04:23:17.394Z,1056.00
2018-05-17T04:24:17.609Z,1060.00
2018-05-17T04:25:17.827Z,1076.00
2018-05-17T04:26:18.039Z,1044.00
2018-05-17T04:27:18.259Z,1032.00
2018-05-17T04:28:20.225Z,1032.00
2018-05-17T04:29:18.684Z,1028.00
2018-05-17T04:30:18.879Z,1072.00
2018-05-17T04:31:19.103Z,1120.00
2018-05-17T04:32:19.341Z,1204.00
2018-05-17T04:33:19.536Z,1224.00
2018-05-17T04:34:19.759Z,1240.00
2018-05-17T04:35:19.967Z,1228.00
2018-05-17T04:36:20.191Z,1224.00
2018-05-17T04:37:20.399Z,1336.00
2018-05-17T04:38:20.608Z,1320.00
2018-05-17T04:39:20.827Z,1296.00
2018-05-17T04:40:21.058Z,1368.00
2018-05-17T04:41:23.205Z,1476.00
2018-05-17T04:42:21.419Z,1512.00
2018-05-17T04:43:21.649Z,1608.00
2018-05-17T04:44:21.877Z,1684.00
2018-05-17T04:45:22.088Z,1716.00
2018-05-17T04:46:26.204Z,1660.00
2018-05-17T04:47:22.416Z,1628.00
2018-05-17T04:48:24.208Z,1584.00
2018-05-17T04:49:24.708Z,1632.00
2018-05-17T04:50:22.920Z,1680.00
2018-05-17T04:51:24.701Z,1656.00
2018-05-17T04:52:23.292Z,1608.00
2018-05-17T04:53:23.509Z,1568.00
2018-05-17T04:54:23.731Z,1664.00
2018-05-17T04:55:23.945Z,1772.00
2018-05-17T04:56:24.158Z,1832.00
2018-05-17T04:57:24.367Z,1852.00
2018-05-17T04:58:31.211Z,1904.00
2018-05-17T04:59:27.706Z,1964.00
2018-05-17T05:00:24.935Z,2096.00
2018-05-17T05:01:25.154Z,1924.00
2018-05-17T05:02:25.370Z,2040.00
2018-05-17T05:03:27.236Z,1988.00
2018-05-17T05:04:25.798Z,2136.00
2018-05-17T05:05:26.010Z,2128.00
2018-05-17T05:06:26.229Z,2036.00
2018-05-17T05:07:26.441Z,2316.00
2018-05-17T05:08:26.659Z,2456.00
2018-05-17T05:09:28.730Z,2500.00
2018-05-17T05:10:27.036Z,2408.00
2018-05-17T05:11:29.208Z,2148.00
2018-05-17T05:12:27.416Z,2144.00
2018-05-17T05:13:27.642Z,2252.00
2018-05-17T05:14:27.864Z,2196.00
2018-05-17T05:15:28.087Z,2308.00
2018-05-17T05:16:28.307Z,2752.00
2018-05-17T05:17:30.205Z,2932.00
2018-05-17T05:18:28.666Z,2952.00
2018-05-17T05:19:28.882Z,2988.00
2018-05-17T05:20:32.705Z,3232.00
2018-05-17T05:21:29.308Z,3480.00
2018-05-17T05:22:29.504Z,3520.00
2018-05-17T05:23:31.707Z,3560.00
2018-05-17T05:24:29.941Z,3604.00
2018-05-17T05:25:30.147Z,3488.00
2018-05-17T05:26:30.360Z,3428.00
2018-05-17T05:27:30.573Z,3372.00
2018-05-17T05:28:30.800Z,3556.00
2018-05-17T05:29:31.011Z,3556.00
2018-05-17T05:30:33.203Z,3492.00
2018-05-17T05:31:31.499Z,3480.00
2018-05-17T05:32:33.205Z,3428.00
2018-05-17T05:33:31.789Z,3332.00
2018-05-17T05:34:32.003Z,3404.00
2018-05-17T05:35:32.225Z,3536.00
2018-05-17T05:36:32.449Z,3604.00
2018-05-17T05:37:32.679Z,3772.00
2018-05-17T05:38:32.890Z,3840.00
2018-05-17T05:39:33.095Z,3912.00
2018-05-17T05:40:33.310Z,4044.00
2018-05-17T05:41:33.529Z,3984.00
2018-05-17T05:42:33.741Z,3776.00
2018-05-17T05:43:33.951Z,3688.00
2018-05-17T05:44:34.167Z,3708.00
2018-05-17T05:45:36.208Z,3228.00
2018-05-17T05:46:34.550Z,3212.00
2018-05-17T05:47:34.764Z,3296.00
2018-05-17T05:48:36.714Z,3096.00
2018-05-17T05:49:35.188Z,2932.00
2018-05-17T05:50:37.215Z,2820.00
2018-05-17T05:51:35.545Z,3228.00
2018-05-17T05:52:35.767Z,3412.00
2018-05-17T05:53:37.706Z,3072.00
2018-05-17T05:54:36.171Z,2844.00
2018-05-17T05:55:36.394Z,2960.00
2018-05-17T05:56:36.600Z,2764.00
2018-05-17T05:57:38.710Z,3076.00
2018-05-17T05:58:37.055Z,3904.00
2018-05-17T05:59:37.265Z,4136.00
2018-05-17T06:00:37.483Z,4144.00
2018-05-17T06:01:40.244Z,4348.00
2018-05-17T06:02:37.818Z,3996.00
2018-05-17T06:03:38.035Z,3472.00
2018-05-17T06:04:38.250Z,3472.00
2018-05-17T06:05:38.473Z,3940.00
2018-05-17T06:06:38.694Z,4252.00
2018-05-17T06:07:38.903Z,4528.00
2018-05-17T06:08:39.133Z,4564.00
2018-05-17T06:09:39.352Z,4684.00
2018-05-17T06:10:39.565Z,4436.00
2018-05-17T06:11:39.788Z,4112.00
2018-05-17T06:12:40.005Z,3904.00
2018-05-17T06:13:40.216Z,3700.00
2018-05-17T06:14:42.207Z,3952.00
2018-05-17T06:15:40.546Z,3900.00
2018-05-17T06:16:40.757Z,4204.00
2018-05-17T06:17:40.981Z,4328.00
2018-05-17T06:18:41.192Z,3944.00
2018-05-17T06:19:41.417Z,3984.00
2018-05-17T06:20:41.633Z,4252.00
2018-05-17T06:21:41.845Z,4672.00
2018-05-17T06:22:42.065Z,4788.00
2018-05-17T06:23:42.288Z,4992.00
2018-05-17T06:24:42.488Z,4816.00
2018-05-17T06:25:42.708Z,4960.00
2018-05-17T06:26:42.919Z,4884.00
2018-05-17T06:27:43.133Z,4720.00
2018-05-17T06:28:43.365Z,4664.00
2018-05-17T06:29:43.554Z,4812.00
2018-05-17T06:30:43.800Z,4804.00
2018-05-17T06:31:43.985Z,5068.00
2018-05-17T06:32:44.196Z,5268.00
2018-05-17T06:33:44.430Z,5808.00
2018-05-17T06:34:44.642Z,6644.00
2018-05-17T06:35:44.866Z,7456.00
2018-05-17T06:36:45.097Z,7704.00
2018-05-17T06:37:45.299Z,8312.00
2018-05-17T06:38:47.209Z,8556.00
2018-05-17T06:39:47.207Z,7948.00
2018-05-17T06:40:45.821Z,7576.00
2018-05-17T06:41:46.015Z,7332.00
2018-05-17T06:42:46.236Z,6984.00
2018-05-17T06:43:46.448Z,7928.00
2018-05-17T06:44:46.671Z,8188.00
2018-05-17T06:45:46.883Z,7716.00
2018-05-17T06:46:47.090Z,8580.00
2018-05-17T06:47:47.310Z,7824.00
2018-05-17T06:48:49.205Z,7692.00
2018-05-17T06:49:47.664Z,7568.00
2018-05-17T06:50:47.884Z,7464.00
2018-05-17T06:51:49.745Z,7748.00
2018-05-17T06:52:48.315Z,7892.00
2018-05-17T06:53:48.526Z,8096.00
2018-05-17T06:54:48.743Z,8336.00
2018-05-17T06:55:48.962Z,8496.00
2018-05-17T06:56:49.173Z,8648.00
2018-05-17T06:57:49.475Z,9388.00
2018-05-17T06:58:49.624Z,9724.00
2018-05-17T06:59:49.838Z,10732.00
2018-05-17T07:00:50.067Z,11984.00
2018-05-17T07:01:50.257Z,13560.00
2018-05-17T07:02:50.483Z,11580.00
2018-05-17T07:03:50.706Z,11076.00
2018-05-17T07:04:53.835Z,11160.00
2018-05-17T07:05:53.718Z,14228.00
2018-05-17T07:06:51.224Z,15008.00
2018-05-17T07:07:53.206Z,16160.00
2018-05-17T07:08:51.556Z,14880.00
2018-05-17T07:09:52.651Z,11800.00
2018-05-17T07:10:53.456Z,13756.00
2018-05-17T07:11:52.178Z,10088.00
2018-05-17T07:12:52.731Z,9208.00
2018-05-17T07:13:52.601Z,8936.00
2018-05-17T07:14:57.040Z,9144.00
2018-05-17T07:15:56.711Z,9000.00
2018-05-17T07:16:53.184Z,8744.00
2018-05-17T07:17:54.786Z,8592.00
2018-05-17T07:18:55.216Z,8268.00
2018-05-17T07:19:53.803Z,8232.00
2018-05-17T07:20:54.030Z,8532.00
2018-05-17T07:21:54.247Z,8668.00
2018-05-17T07:22:56.248Z,9168.00
2018-05-17T07:23:54.682Z,9760.00
2018-05-17T07:24:55.010Z,10728.00
2018-05-17T07:25:55.098Z,10444.00
2018-05-17T07:26:55.332Z,13128.00
2018-05-17T07:27:55.554Z,18784.00
2018-05-17T07:28:55.759Z,20448.00
2018-05-17T07:29:57.727Z,23360.00
2018-05-17T07:30:56.178Z,23296.00
2018-05-17T07:31:56.399Z,23552.00
2018-05-17T07:32:56.622Z,20832.00
2018-05-17T07:33:58.441Z,22912.00
2018-05-17T07:34:57.042Z,22432.00
2018-05-17T07:35:57.280Z,22816.00
2018-05-17T07:36:57.479Z,23552.00
2018-05-17T07:37:57.719Z,21472.00
2018-05-17T07:38:57.941Z,17664.00
2018-05-17T07:39:58.148Z,16768.00
2018-05-17T07:40:58.370Z,14616.00
2018-05-17T07:41:58.593Z,14232.00
2018-05-17T07:42:58.799Z,19552.00
2018-05-17T07:43:59.017Z,20960.00
2018-05-17T07:45:01.211Z,19680.00
2018-05-17T07:45:59.432Z,23648.00
2018-05-17T07:46:59.685Z,24800.00
2018-05-17T07:48:01.712Z,24512.00
2018-05-17T07:49:00.063Z,24704.00
2018-05-17T07:50:00.277Z,25088.00
2018-05-17T07:51:00.502Z,26144.00
2018-05-17T07:52:02.226Z,27328.00
2018-05-17T07:53:00.922Z,28672.00
2018-05-17T07:54:01.200Z,31584.00
2018-05-17T07:55:01.388Z,24800.00
2018-05-17T07:56:05.209Z,32800.00
2018-05-17T07:57:01.820Z,28480.00
2018-05-17T07:58:02.047Z,31968.00
2018-05-17T07:59:02.279Z,29408.00
2018-05-17T08:00:04.218Z,27168.00
2018-05-17T08:01:02.688Z,27200.00
2018-05-17T08:02:04.712Z,28576.00
2018-05-17T08:03:03.098Z,22272.00
2018-05-17T08:04:03.309Z,18496.00
2018-05-17T08:05:03.539Z,20192.00
2018-05-17T08:06:03.759Z,23200.00
2018-05-17T08:07:03.981Z,25984.00
2018-05-17T08:08:04.284Z,27168.00
2018-05-17T08:09:04.425Z,29696.00
2018-05-17T08:10:04.650Z,28288.00
2018-05-17T08:11:04.900Z,19968.00
2018-05-17T08:12:07.734Z,26528.00
2018-05-17T08:13:07.233Z,19808.00
2018-05-17T08:14:07.215Z,20416.00
2018-05-17T08:15:05.697Z,23520.00
2018-05-17T08:16:05.934Z,18272.00
2018-05-17T08:17:06.143Z,24672.00
2018-05-17T08:18:06.448Z,18336.00
2018-05-17T08:19:06.601Z,16384.00
2018-05-17T08:20:06.820Z,15672.00
2018-05-17T08:21:08.718Z,14296.00
2018-05-17T08:22:08.184Z,14184.00
2018-05-17T08:23:09.219Z,14956.00
2018-05-17T08:24:09.218Z,20160.00
2018-05-17T08:25:09.226Z,14924.00
2018-05-17T08:26:09.719Z,18592.00
2018-05-17T08:27:07.941Z,17216.00
2018-05-17T08:28:08.166Z,17728.00
2018-05-17T08:29:10.223Z,33312.00
2018-05-17T08:30:08.585Z,18080.00
2018-05-17T08:31:08.789Z,17216.00
2018-05-17T08:32:10.720Z,17440.00
2018-05-17T08:33:09.219Z,18784.00
2018-05-17T08:34:09.429Z,19808.00
2018-05-17T08:35:09.660Z,43104.00
2018-05-17T08:36:09.988Z,41696.00
2018-05-17T08:37:16.726Z,42816.00
2018-05-17T08:38:10.307Z,41376.00
2018-05-17T08:39:10.539Z,38304.00
2018-05-17T08:40:12.273Z,24416.00
2018-05-17T08:41:12.715Z,22784.00
2018-05-17T08:42:12.721Z,25728.00
2018-05-17T08:43:11.195Z,20480.00
2018-05-17T08:44:11.409Z,22336.00
2018-05-17T08:45:11.623Z,33760.00
2018-05-17T08:46:13.739Z,37056.00
2018-05-17T08:47:11.965Z,24416.00
2018-05-17T08:48:12.187Z,20320.00
2018-05-17T08:49:14.223Z,19488.00
2018-05-17T08:50:12.575Z,20352.00
2018-05-17T08:51:12.792Z,19200.00
2018-05-17T08:52:15.723Z,19360.00
2018-05-17T08:53:13.982Z,19584.00
2018-05-17T08:54:13.398Z,19424.00
2018-05-17T08:55:14.582Z,19296.00
2018-05-17T08:56:13.813Z,19872.00
2018-05-17T08:57:15.736Z,19776.00
2018-05-17T08:58:14.215Z,29216.00
2018-05-17T08:59:16.219Z,22272.00
2018-05-17T09:00:16.223Z,34496.00
2018-05-17T09:01:14.690Z,24512.00
2018-05-17T09:02:17.735Z,31008.00
2018-05-17T09:03:15.081Z,23808.00
2018-05-17T09:04:15.322Z,22016.00
2018-05-17T09:05:15.545Z,28480.00
2018-05-17T09:06:15.858Z,31840.00
2018-05-17T09:07:16.001Z,30432.00
2018-05-17T09:08:16.241Z,24256.00
2018-05-17T09:09:16.456Z,26816.00
2018-05-17T09:10:18.223Z,23232.00
2018-05-17T09:11:16.820Z,30592.00
2018-05-17T09:12:18.718Z,31680.00
2018-05-17T09:13:17.197Z,30304.00
2018-05-17T09:14:19.222Z,51072.00
2018-05-17T09:15:21.237Z,50656.00
2018-05-17T09:16:18.715Z,49344.00
2018-05-17T09:17:17.958Z,34496.00
2018-05-17T09:18:22.736Z,44064.00
2018-05-17T09:19:18.202Z,44480.00
2018-05-17T09:20:18.522Z,43840.00
2018-05-17T09:21:18.652Z,52704.00
2018-05-17T09:22:26.798Z,52704.00
2018-05-17T09:23:20.075Z,53824.00
2018-05-17T09:24:19.306Z,54112.00
2018-05-17T09:25:21.231Z,53568.00
2018-05-17T09:26:21.256Z,52896.00
2018-05-17T09:27:21.767Z,45216.00
2018-05-17T09:28:21.028Z,52416.00
2018-05-17T09:29:21.726Z,52384.00
2018-05-17T09:30:22.230Z,52064.00
2018-05-17T09:31:27.462Z,51904.00
2018-05-17T09:32:20.689Z,50720.00
2018-05-17T09:33:24.731Z,50976.00
2018-05-17T09:34:25.164Z,48448.00
2018-05-17T09:35:21.278Z,47104.00
2018-05-17T09:36:23.253Z,46272.00
2018-05-17T09:37:23.265Z,46112.00
2018-05-17T09:38:21.975Z,46880.00
2018-05-17T09:39:23.721Z,49408.00
2018-05-17T09:40:22.477Z,32480.00
2018-05-17T09:41:24.291Z,31168.00
2018-05-17T09:42:30.724Z,25696.00
2018-05-17T09:43:23.079Z,26944.00
2018-05-17T09:44:23.314Z,23456.00
2018-05-17T09:45:27.904Z,22848.00
2018-05-17T09:46:27.770Z,22368.00
2018-05-17T09:47:31.830Z,22048.00
2018-05-17T09:48:25.745Z,21984.00
2018-05-17T09:49:24.231Z,22336.00
2018-05-17T09:50:25.502Z,22976.00
2018-05-17T09:51:24.718Z,23424.00
2018-05-17T09:52:28.736Z,23200.00
2018-05-17T09:53:26.734Z,23488.00
2018-05-17T09:54:28.752Z,23904.00
2018-05-17T09:55:25.378Z,25792.00
2018-05-17T09:56:29.259Z,35744.00
2018-05-17T09:57:27.319Z,52096.00
2018-05-17T09:58:27.104Z,50400.00
2018-05-17T09:59:27.732Z,49376.00
2018-05-17T10:00:26.327Z,46592.00
2018-05-17T10:01:28.230Z,38464.00
2018-05-17T10:02:26.761Z,44800.00
2018-05-17T10:03:28.724Z,32384.00
2018-05-17T10:04:27.068Z,43648.00
2018-05-17T10:05:28.345Z,51072.00
2018-05-17T10:06:27.456Z,48928.00
2018-05-17T10:07:29.251Z,44320.00
2018-05-17T10:08:43.723Z,26528.00
2018-05-17T10:09:29.743Z,25440.00
2018-05-17T10:10:28.214Z,41184.00
2018-05-17T10:11:28.445Z,44960.00
2018-05-17T10:12:28.677Z,27488.00
2018-05-17T10:13:30.764Z,30944.00
2018-05-17T10:14:29.171Z,50976.00
2018-05-17T10:15:30.332Z,28224.00
2018-05-17T10:16:29.613Z,25600.00
2018-05-17T10:17:29.742Z,25088.00
2018-05-17T10:18:32.747Z,25056.00
2018-05-17T10:19:31.105Z,26304.00
2018-05-17T10:20:30.223Z,24672.00
2018-05-17T10:21:30.497Z,23872.00
2018-05-17T10:22:32.227Z,23328.00
2018-05-17T10:23:33.746Z,22784.00
2018-05-17T10:24:37.744Z,22272.00
2018-05-17T10:25:32.728Z,21824.00
2018-05-17T10:26:31.338Z,21312.00
2018-05-17T10:27:31.590Z,20736.00
2018-05-17T10:28:35.744Z,20288.00
2018-05-17T10:29:32.068Z,19936.00
2018-05-17T10:30:33.213Z,19680.00
2018-05-17T10:31:32.441Z,19520.00
2018-05-17T10:32:32.663Z,19456.00
2018-05-17T10:33:32.883Z,19424.00
2018-05-17T10:34:33.117Z,19584.00
2018-05-17T10:35:35.232Z,19680.00
2018-05-17T10:36:33.582Z,19808.00
2018-05-17T10:37:33.797Z,20064.00
2018-05-17T10:38:34.030Z,21632.00
2018-05-17T10:39:36.227Z,34880.00
2018-05-17T10:40:34.469Z,40480.00
2018-05-17T10:41:34.683Z,48672.00
2018-05-17T10:42:36.727Z,48992.00
2018-05-17T10:43:35.079Z,42784.00
2018-05-17T10:44:35.302Z,46624.00
2018-05-17T10:45:39.277Z,47328.00
2018-05-17T10:46:37.239Z,48064.00
2018-05-17T10:47:35.827Z,47360.00
2018-05-17T10:48:37.739Z,49280.00
2018-05-17T10:49:36.209Z,38304.00
2018-05-17T10:50:38.234Z,45568.00
2018-05-17T10:51:36.601Z,44832.00
2018-05-17T10:52:36.714Z,49376.00
2018-05-17T10:53:40.733Z,48960.00
2018-05-17T10:54:40.745Z,49888.00
2018-05-17T10:55:40.815Z,50976.00
2018-05-17T10:56:39.230Z,49280.00
2018-05-17T10:57:37.623Z,45600.00
2018-05-17T10:58:39.772Z,44224.00
2018-05-17T10:59:39.804Z,48000.00
2018-05-17T11:00:41.731Z,49408.00
2018-05-17T11:01:39.269Z,48224.00
2018-05-17T11:02:38.545Z,45856.00
2018-05-17T11:03:39.775Z,43296.00
2018-05-17T11:05:01.730Z,45280.00
2018-05-17T11:05:40.061Z,44000.00
2018-05-17T11:06:39.317Z,42688.00
2018-05-17T11:07:39.424Z,43200.00
2018-05-17T11:08:41.272Z,42848.00
2018-05-17T11:09:47.738Z,43520.00
2018-05-17T11:10:40.079Z,43456.00
2018-05-17T11:11:40.334Z,42400.00
2018-05-17T11:12:42.233Z,43648.00
2018-05-17T11:13:42.259Z,42048.00
2018-05-17T11:14:44.257Z,39712.00
2018-05-17T11:15:42.732Z,32160.00
2018-05-17T11:16:43.751Z,25856.00
2018-05-17T11:17:42.750Z,24448.00
2018-05-17T11:18:41.363Z,24160.00
2018-05-17T11:19:43.251Z,23776.00
2018-05-17T11:20:41.714Z,24064.00
2018-05-17T11:21:41.944Z,24128.00
2018-05-17T11:22:43.734Z,24128.00
2018-05-17T11:23:43.328Z,23744.00
2018-05-17T11:24:42.559Z,23072.00
2018-05-17T11:25:43.809Z,22944.00
2018-05-17T11:26:46.735Z,22368.00
2018-05-17T11:27:44.733Z,22656.00
2018-05-17T11:28:44.211Z,21920.00
2018-05-17T11:29:43.434Z,21504.00
2018-05-17T11:30:47.233Z,21952.00
2018-05-17T11:31:43.817Z,21824.00
2018-05-17T11:32:44.050Z,21440.00
2018-05-17T11:33:44.283Z,20960.00
2018-05-17T11:34:44.501Z,20800.00
2018-05-17T11:35:48.284Z,21120.00
2018-05-17T11:36:44.962Z,21536.00
2018-05-17T11:37:45.211Z,21824.00
2018-05-17T11:38:45.429Z,21440.00
2018-05-17T11:39:46.645Z,21024.00
2018-05-17T11:40:45.902Z,20896.00
2018-05-17T11:41:47.751Z,20576.00
2018-05-17T11:42:46.236Z,20256.00
2018-05-17T11:43:46.495Z,19872.00
2018-05-17T11:44:46.708Z,19616.00
2018-05-17T11:45:49.752Z,19424.00
2018-05-17T11:46:47.090Z,19232.00
2018-05-17T11:47:53.268Z,19104.00
2018-05-17T11:48:50.248Z,18720.00
2018-05-17T11:49:47.610Z,18240.00
2018-05-17T11:50:47.819Z,18144.00
2018-05-17T11:51:48.053Z,18624.00
2018-05-17T11:52:48.295Z,18496.00
2018-05-17T11:53:48.517Z,18400.00
2018-05-17T11:54:48.750Z,18304.00
2018-05-17T11:55:48.954Z,18240.00
2018-05-17T11:56:49.190Z,18240.00
2018-05-17T11:57:49.426Z,18560.00
2018-05-17T11:58:49.670Z,19168.00
2018-05-17T11:59:49.864Z,19840.00
2018-05-17T12:00:50.083Z,19520.00
2018-05-17T12:01:50.306Z,19808.00
2018-05-17T12:02:53.240Z,19328.00
2018-05-17T12:03:50.720Z,19200.00
2018-05-17T12:04:50.958Z,19456.00
2018-05-17T12:05:52.762Z,19616.00
2018-05-17T12:06:51.335Z,19616.00
2018-05-17T12:07:51.565Z,20224.00
2018-05-17T12:08:51.797Z,21536.00
2018-05-17T12:09:52.015Z,22144.00
2018-05-17T12:10:52.247Z,22560.00
2018-05-17T12:11:52.474Z,22528.00
2018-05-17T12:12:53.346Z,21920.00
2018-05-17T12:13:54.739Z,21632.00
2018-05-17T12:14:54.759Z,21632.00
2018-05-17T12:15:53.113Z,21600.00
2018-05-17T12:16:53.348Z,21504.00
2018-05-17T12:17:53.560Z,21600.00
2018-05-17T12:18:53.810Z,21696.00